Terminal Aerodrome Forecast
Issued by NWS Missoula, MT

Home | Current Version | Previous Version | Text Only | Print | Product List | Glossary On
Versions: 1 2 3 4 5 6 7 8 9 10 11 12 13 14 15 16 17 18
000
FTUS45 KMSO 212337
TAFGPI
TAF
KGPI 212337Z 2200/2224 18005KT P6SM VCSH BKN040
     FM220300 VRB03KT P6SM OVC050
     FM220900 00000KT P6SM VCFG BKN060
     FM221100 00000KT 1/2SM FG SCT001 BKN060
     FM221330 VRB03KT P6SM BKN080=

USA.gov is the U.S. government's official web portal to all federal, state and local government web resources and services.